Time,TemperatureF,DewpointF,PressureIn,WindDirection,WindDirectionDegrees,WindSpeedMPH,WindSpeedGustMPH,Humidity,HourlyPrecipIn,Conditions,Clouds,dailyrainin,SolarRadiationWatts/m^2,SoftwareType,DateUTC
2013-02-22 00:00:00,19.0,16.3,30.38,NNE,19,0.0,0.0,89,0.00,,,0.00,0.00,VWS V14.00,2013-02-22 05:00:00,
2013-02-22 00:01:00,19.0,16.3,30.37,NNE,19,0.0,0.0,89,0.00,,,0.00,0.00,VWS V14.00,2013-02-22 05:01:00,
2013-02-22 00:06:00,19.0,16.3,30.37,NNE,19,0.0,0.0,89,0.00,,,0.00,0.00,VWS V14.00,2013-02-22 05:06:00,
2013-02-22 00:11:00,19.0,16.3,30.38,NNE,19,0.0,0.0,89,0.00,,,0.00,0.00,VWS V14.00,2013-02-22 05:11:00,
2013-02-22 00:16:00,19.0,16.3,30.38,NNE,19,0.0,0.0,89,0.00,,,0.00,0.00,VWS V14.00,2013-02-22 05:16:00,
2013-02-22 00:21:00,19.0,16.3,30.37,NNE,19,0.0,1.0,89,0.00,,,0.00,0.00,VWS V14.00,2013-02-22 05:21:00,
2013-02-22 00:26:00,19.1,16.7,30.37,North,5,0.0,0.0,90,0.00,,,0.00,0.00,VWS V14.00,2013-02-22 05:26:00,
2013-02-22 00:31:00,19.1,16.7,30.37,North,5,0.0,0.0,90,0.00,,,0.00,0.00,VWS V14.00,2013-02-22 05:31:00,
2013-02-22 00:36:00,19.1,16.7,30.37,North,5,0.0,0.0,90,0.00,,,0.00,0.00,VWS V14.00,2013-02-22 05:36:00,
2013-02-22 00:41:00,19.1,16.7,30.37,North,5,0.0,0.0,90,0.00,,,0.00,0.00,VWS V14.00,2013-02-22 05:41:00,
2013-02-22 00:46:00,19.2,16.8,30.37,North,5,0.0,1.0,90,0.00,,,0.00,0.00,VWS V14.00,2013-02-22 05:46:00,
2013-02-22 00:51:00,19.2,16.8,30.36,North,5,0.0,0.0,90,0.00,,,0.00,0.00,VWS V14.00,2013-02-22 05:51:00,
2013-02-22 00:56:00,19.2,16.8,30.35,North,5,0.0,0.0,90,0.00,,,0.00,0.00,VWS V14.00,2013-02-22 05:56:00,
2013-02-22 01:01:00,19.3,16.9,30.36,SSE,157,3.0,4.0,90,0.00,,,0.00,0.00,VWS V14.00,2013-02-22 06:01:00,
2013-02-22 01:06:00,19.3,16.9,30.36,SSE,167,0.0,0.0,90,0.00,,,0.00,0.00,VWS V14.00,2013-02-22 06:06:00,
2013-02-22 01:11:00,19.3,16.9,30.36,ESE,123,0.0,0.0,90,0.00,,,0.00,0.00,VWS V14.00,2013-02-22 06:11:00,
2013-02-22 01:16:00,19.2,16.8,30.36,South,176,2.0,2.0,90,0.00,,,0.00,0.00,VWS V14.00,2013-02-22 06:16:00,
2013-02-22 01:21:00,19.1,16.7,30.36,South,175,0.0,0.0,90,0.00,,,0.00,0.00,VWS V14.00,2013-02-22 06:21:00,
2013-02-22 01:26:00,19.1,16.4,30.36,South,175,0.0,3.0,89,0.00,,,0.00,0.00,VWS V14.00,2013-02-22 06:26:00,
2013-02-22 01:31:00,19.0,16.6,30.36,South,178,0.0,0.0,90,0.00,,,0.00,0.00,VWS V14.00,2013-02-22 06:31:00,
2013-02-22 01:36:00,19.0,16.6,30.36,South,178,0.0,0.0,90,0.00,,,0.00,0.00,VWS V14.00,2013-02-22 06:36:00,
2013-02-22 01:41:00,19.0,16.6,30.36,South,178,0.0,0.0,90,0.00,,,0.00,0.00,VWS V14.00,2013-02-22 06:41:00,
2013-02-22 01:46:00,19.1,16.7,30.36,South,178,0.0,2.0,90,0.00,,,0.00,0.00,VWS V14.00,2013-02-22 06:46:00,
2013-02-22 01:51:00,19.1,16.7,30.36,South,178,0.0,0.0,90,0.00,,,0.00,0.00,VWS V14.00,2013-02-22 06:51:00,
2013-02-22 01:56:00,19.1,16.7,30.35,South,179,0.0,2.0,90,0.00,,,0.00,0.00,VWS V14.00,2013-02-22 06:56:00,
2013-02-22 02:01:00,19.1,16.7,30.36,South,173,2.0,2.0,90,0.00,,,0.00,0.00,VWS V14.00,2013-02-22 07:01:00,
2013-02-22 02:06:00,19.1,16.7,30.36,South,173,0.0,0.0,90,0.00,,,0.00,0.00,VWS V14.00,2013-02-22 07:06:00,
2013-02-22 02:11:00,19.1,16.7,30.36,South,173,0.0,0.0,90,0.00,,,0.00,0.00,VWS V14.00,2013-02-22 07:11:00,
2013-02-22 02:16:00,19.2,16.8,30.36,South,173,0.0,0.0,90,0.00,,,0.00,0.00,VWS V14.00,2013-02-22 07:16:00,
2013-02-22 02:21:00,19.2,16.8,30.36,South,173,0.0,1.0,90,0.00,,,0.00,0.00,VWS V14.00,2013-02-22 07:21:00,
2013-02-22 02:26:00,19.2,16.8,30.36,South,173,0.0,0.0,90,0.00,,,0.00,0.00,VWS V14.00,2013-02-22 07:26:00,
2013-02-22 02:31:00,19.2,16.8,30.36,South,169,0.0,0.0,90,0.00,,,0.00,0.00,VWS V14.00,2013-02-22 07:31:00,
2013-02-22 02:36:00,19.2,16.8,30.36,South,169,0.0,0.0,90,0.00,,,0.00,0.00,VWS V14.00,2013-02-22 07:36:00,
2013-02-22 02:41:00,19.3,16.9,30.36,South,169,0.0,0.0,90,0.00,,,0.00,0.00,VWS V14.00,2013-02-22 07:41:00,
2013-02-22 02:46:00,19.3,16.9,30.35,South,169,0.0,0.0,90,0.00,,,0.00,0.00,VWS V14.00,2013-02-22 07:46:00,
2013-02-22 02:51:00,19.3,16.9,30.35,South,169,0.0,0.0,90,0.00,,,0.00,0.00,VWS V14.00,2013-02-22 07:51:00,
2013-02-22 02:56:00,19.3,16.9,30.36,SSE,150,0.0,1.0,90,0.00,,,0.00,0.00,VWS V14.00,2013-02-22 07:56:00,
2013-02-22 03:01:00,19.3,16.9,30.35,SSE,158,0.0,0.0,90,0.00,,,0.00,0.00,VWS V14.00,2013-02-22 08:01:00,
2013-02-22 03:06:00,19.3,16.9,30.35,ESE,119,1.0,1.0,90,0.00,,,0.00,0.00,VWS V14.00,2013-02-22 08:06:00,
2013-02-22 03:11:00,19.3,16.9,30.35,SE,139,1.0,1.0,90,0.00,,,0.00,0.00,VWS V14.00,2013-02-22 08:11:00,
2013-02-22 03:16:00,19.3,16.9,30.35,SE,141,0.0,0.0,90,0.00,,,0.00,0.00,VWS V14.00,2013-02-22 08:16:00,
2013-02-22 03:21:00,19.4,17.0,30.35,SE,144,0.0,0.0,90,0.00,,,0.00,0.00,VWS V14.00,2013-02-22 08:21:00,
2013-02-22 03:26:00,19.4,17.0,30.35,SE,144,0.0,0.0,90,0.00,,,0.00,0.00,VWS V14.00,2013-02-22 08:26:00,
2013-02-22 03:31:00,19.4,17.0,30.35,SE,144,0.0,0.0,90,0.00,,,0.00,0.00,VWS V14.00,2013-02-22 08:31:00,
2013-02-22 03:36:00,19.4,17.0,30.35,SE,144,0.0,0.0,90,0.00,,,0.00,0.00,VWS V14.00,2013-02-22 08:36:00,
2013-02-22 03:41:00,19.4,17.0,30.35,SE,144,0.0,0.0,90,0.00,,,0.00,0.00,VWS V14.00,2013-02-22 08:41:00,
2013-02-22 03:46:00,19.5,17.0,30.35,SE,144,0.0,0.0,90,0.00,,,0.00,0.00,VWS V14.00,2013-02-22 08:46:00,
2013-02-22 03:51:00,19.5,17.0,30.35,ESE,109,2.0,2.0,90,0.00,,,0.00,0.00,VWS V14.00,2013-02-22 08:51:00,
2013-02-22 03:56:00,19.5,17.0,30.35,NE,45,1.0,1.0,90,0.00,,,0.00,0.00,VWS V14.00,2013-02-22 08:56:00,
2013-02-22 04:01:00,19.5,17.0,30.35,NE,51,1.0,3.0,90,0.00,,,0.00,0.00,VWS V14.00,2013-02-22 09:01:00,
2013-02-22 04:06:00,19.4,17.0,30.35,NE,51,0.0,0.0,90,0.00,,,0.00,0.00,VWS V14.00,2013-02-22 09:06:00,
2013-02-22 04:11:00,19.4,17.0,30.35,NE,51,2.0,2.0,90,0.00,,,0.00,0.00,VWS V14.00,2013-02-22 09:11:00,
2013-02-22 04:16:00,19.3,16.9,30.34,NW,326,3.0,5.0,90,0.00,,,0.00,0.00,VWS V14.00,2013-02-22 09:16:00,
2013-02-22 04:21:00,19.3,16.9,30.34,NW,325,0.0,0.0,90,0.00,,,0.00,0.00,VWS V14.00,2013-02-22 09:21:00,
2013-02-22 04:26:00,19.2,16.8,30.35,NW,325,0.0,3.0,90,0.00,,,0.00,0.00,VWS V14.00,2013-02-22 09:26:00,
2013-02-22 04:31:00,19.1,16.7,30.34,NW,325,2.0,3.0,90,0.00,,,0.00,0.00,VWS V14.00,2013-02-22 09:31:00,
2013-02-22 04:36:00,19.0,16.6,30.34,NW,325,2.0,4.0,90,0.00,,,0.00,0.00,VWS V14.00,2013-02-22 09:36:00,
2013-02-22 04:41:00,19.0,16.6,30.34,NNW,329,3.0,5.0,90,0.00,,,0.00,0.00,VWS V14.00,2013-02-22 09:41:00,
2013-02-22 04:47:00,19.0,16.6,30.34,NW,326,2.0,7.0,90,0.00,,,0.00,0.00,VWS V14.00,2013-02-22 09:47:00,
2013-02-22 04:52:00,18.9,16.5,30.35,NW,320,5.0,5.0,90,0.00,,,0.00,0.00,VWS V14.00,2013-02-22 09:52:00,
2013-02-22 04:57:00,18.9,16.5,30.37,NW,322,0.0,4.0,90,0.00,,,0.00,0.00,VWS V14.00,2013-02-22 09:57:00,
2013-02-22 05:02:00,19.1,16.9,30.36,NNW,329,3.0,5.0,91,0.00,,,0.00,0.00,VWS V14.00,2013-02-22 10:02:00,
2013-02-22 05:07:00,19.3,17.1,30.35,NNW,329,0.0,3.0,91,0.00,,,0.00,0.00,VWS V14.00,2013-02-22 10:07:00,
2013-02-22 05:12:00,19.5,17.3,30.36,NNW,329,0.0,0.0,91,0.00,,,0.00,0.00,VWS V14.00,2013-02-22 10:12:00,
2013-02-22 05:17:00,19.5,17.3,30.36,NNW,329,2.0,3.0,91,0.00,,,0.00,0.00,VWS V14.00,2013-02-22 10:17:00,
2013-02-22 05:22:00,19.6,17.4,30.37,NNW,340,3.0,4.0,91,0.00,,,0.00,0.00,VWS V14.00,2013-02-22 10:22:00,
2013-02-22 05:27:00,19.5,17.0,30.37,NNW,340,3.0,4.0,90,0.00,,,0.00,0.00,VWS V14.00,2013-02-22 10:27:00,
2013-02-22 05:32:00,19.2,16.8,30.37,NNW,340,1.0,3.0,90,0.00,,,0.00,0.00,VWS V14.00,2013-02-22 10:32:00,
2013-02-22 05:37:00,18.9,16.5,30.37,NNW,340,2.0,3.0,90,0.00,,,0.00,0.00,VWS V14.00,2013-02-22 10:37:00,
2013-02-22 05:42:00,18.7,16.3,30.37,NW,322,2.0,4.0,90,0.00,,,0.00,0.00,VWS V14.00,2013-02-22 10:42:00,
2013-02-22 05:47:00,18.6,16.2,30.37,NW,322,2.0,3.0,90,0.00,,,0.00,0.00,VWS V14.00,2013-02-22 10:47:00,
2013-02-22 05:52:00,18.7,16.3,30.38,NW,322,0.0,2.0,90,0.00,,,0.00,0.00,VWS V14.00,2013-02-22 10:52:00,
2013-02-22 05:57:00,18.6,16.2,30.38,NW,322,0.0,0.0,90,0.00,,,0.00,0.00,VWS V14.00,2013-02-22 10:57:00,
2013-02-22 06:02:00,18.6,16.2,30.38,NW,322,2.0,2.0,90,0.00,,,0.00,0.00,VWS V14.00,2013-02-22 11:02:00,
2013-02-22 06:07:00,18.6,16.2,30.38,NW,322,0.0,1.0,90,0.00,,,0.00,0.00,VWS V14.00,2013-02-22 11:07:00,
2013-02-22 06:12:00,18.6,16.2,30.39,NW,322,0.0,0.0,90,0.00,,,0.00,0.00,VWS V14.00,2013-02-22 11:12:00,
2013-02-22 06:17:00,18.3,15.9,30.39,NW,322,2.0,2.0,90,0.00,,,0.00,0.00,VWS V14.00,2013-02-22 11:17:00,
2013-02-22 06:22:00,18.0,15.6,30.39,NW,322,0.0,0.0,90,0.00,,,0.00,0.00,VWS V14.00,2013-02-22 11:22:00,
2013-02-22 06:27:00,17.7,15.3,30.39,NW,322,1.0,2.0,90,0.00,,,0.00,0.00,VWS V14.00,2013-02-22 11:27:00,
2013-02-22 06:32:00,17.3,14.9,30.39,NW,322,0.0,0.0,90,0.00,,,0.00,0.00,VWS V14.00,2013-02-22 11:32:00,
2013-02-22 06:37:00,17.0,14.3,30.39,NW,322,2.0,2.0,89,0.00,,,0.00,0.00,VWS V14.00,2013-02-22 11:37:00,
2013-02-22 06:42:00,16.7,14.0,30.40,NW,322,3.0,5.0,89,0.00,,,0.00,5.00,VWS V14.00,2013-02-22 11:42:00,
2013-02-22 06:47:00,16.2,13.5,30.40,NW,322,3.0,3.0,89,0.00,,,0.00,7.00,VWS V14.00,2013-02-22 11:47:00,
2013-02-22 06:52:00,15.9,13.2,30.40,NW,322,2.0,3.0,89,0.00,,,0.00,16.00,VWS V14.00,2013-02-22 11:52:00,
2013-02-22 06:57:00,15.6,12.9,30.40,NW,322,3.0,4.0,89,0.00,,,0.00,23.00,VWS V14.00,2013-02-22 11:57:00,
2013-02-22 07:02:00,15.4,12.7,30.41,NW,322,3.0,5.0,89,0.00,,,0.00,32.00,VWS V14.00,2013-02-22 12:02:00,
2013-02-22 07:07:00,15.5,12.8,30.41,NW,322,0.0,2.0,89,0.00,,,0.00,40.00,VWS V14.00,2013-02-22 12:07:00,
2013-02-22 07:12:00,15.8,13.4,30.41,NW,322,1.0,3.0,90,0.00,,,0.00,51.00,VWS V14.00,2013-02-22 12:12:00,
2013-02-22 07:17:00,16.0,13.6,30.41,NW,322,0.0,1.0,90,0.00,,,0.00,63.00,VWS V14.00,2013-02-22 12:17:00,
2013-02-22 07:22:00,16.2,13.8,30.42,NW,322,2.0,2.0,90,0.00,,,0.00,76.00,VWS V14.00,2013-02-22 12:22:00,
2013-02-22 07:27:00,16.4,14.0,30.42,NW,322,2.0,3.0,90,0.00,,,0.00,90.00,VWS V14.00,2013-02-22 12:27:00,
2013-02-22 07:32:00,16.7,14.3,30.42,NW,322,0.0,0.0,90,0.00,,,0.00,104.00,VWS V14.00,2013-02-22 12:32:00,
2013-02-22 07:37:00,16.8,14.4,30.42,NW,322,0.0,0.0,90,0.00,,,0.00,118.00,VWS V14.00,2013-02-22 12:37:00,
2013-02-22 07:42:00,17.1,14.7,30.42,NW,322,0.0,0.0,90,0.00,,,0.00,134.00,VWS V14.00,2013-02-22 12:42:00,
2013-02-22 07:47:00,17.6,15.2,30.42,NW,322,0.0,0.0,90,0.00,,,0.00,148.00,VWS V14.00,2013-02-22 12:47:00,
2013-02-22 07:52:00,18.6,16.4,30.42,NW,322,0.0,0.0,91,0.00,,,0.00,163.00,VWS V14.00,2013-02-22 12:52:00,
2013-02-22 07:57:00,19.3,17.1,30.42,NW,322,0.0,0.0,91,0.00,,,0.00,176.00,VWS V14.00,2013-02-22 12:57:00,
2013-02-22 08:02:00,19.9,17.7,30.42,NW,322,0.0,0.0,91,0.00,,,0.00,185.00,VWS V14.00,2013-02-22 13:02:00,
2013-02-22 08:07:00,20.7,18.8,30.43,NW,322,0.0,1.0,92,0.00,,,0.00,197.00,VWS V14.00,2013-02-22 13:07:00,
2013-02-22 08:12:00,21.3,19.1,30.43,SSE,154,1.0,3.0,91,0.00,,,0.00,200.00,VWS V14.00,2013-02-22 13:12:00,
2013-02-22 08:17:00,21.8,19.6,30.42,SSE,154,0.0,1.0,91,0.00,,,0.00,225.00,VWS V14.00,2013-02-22 13:17:00,
2013-02-22 08:22:00,22.4,20.2,30.42,SSE,154,0.0,0.0,91,0.00,,,0.00,239.00,VWS V14.00,2013-02-22 13:22:00,
2013-02-22 08:27:00,22.7,20.5,30.42,SSE,154,0.0,0.0,91,0.00,,,0.00,257.00,VWS V14.00,2013-02-22 13:27:00,
2013-02-22 08:32:00,23.1,20.9,30.42,SSE,154,0.0,1.0,91,0.00,,,0.00,271.00,VWS V14.00,2013-02-22 13:32:00,
2013-02-22 08:37:00,23.3,21.1,30.42,SSE,154,0.0,0.0,91,0.00,,,0.00,172.00,VWS V14.00,2013-02-22 13:37:00,
2013-02-22 08:42:00,23.5,21.3,30.42,SSE,154,0.0,0.0,91,0.00,,,0.00,63.00,VWS V14.00,2013-02-22 13:42:00,
2013-02-22 08:47:00,23.5,21.0,30.42,SSE,154,0.0,1.0,90,0.00,,,0.00,62.00,VWS V14.00,2013-02-22 13:47:00,
2013-02-22 08:52:00,23.5,21.0,30.42,SSE,154,0.0,0.0,90,0.00,,,0.00,62.00,VWS V14.00,2013-02-22 13:52:00,
2013-02-22 08:57:00,23.6,21.1,30.42,SSE,154,0.0,0.0,90,0.00,,,0.00,62.00,VWS V14.00,2013-02-22 13:57:00,
2013-02-22 09:02:00,23.7,21.2,30.42,SSE,154,0.0,0.0,90,0.00,,,0.00,62.00,VWS V14.00,2013-02-22 14:02:00,
2013-02-22 09:07:00,23.8,21.3,30.42,SSE,154,0.0,0.0,90,0.00,,,0.00,65.00,VWS V14.00,2013-02-22 14:07:00,
2013-02-22 09:12:00,24.0,21.8,30.42,SSE,154,0.0,0.0,91,0.00,,,0.00,63.00,VWS V14.00,2013-02-22 14:12:00,
2013-02-22 09:17:00,24.1,21.6,30.42,SSE,154,0.0,0.0,90,0.00,,,0.00,67.00,VWS V14.00,2013-02-22 14:17:00,
2013-02-22 09:22:00,24.2,21.7,30.42,SSE,154,0.0,1.0,90,0.00,,,0.00,69.00,VWS V14.00,2013-02-22 14:22:00,
2013-02-22 09:27:00,24.3,21.8,30.42,SSE,154,0.0,0.0,90,0.00,,,0.00,90.00,VWS V14.00,2013-02-22 14:27:00,
2013-02-22 09:32:00,24.5,22.0,30.42,SSE,154,0.0,0.0,90,0.00,,,0.00,86.00,VWS V14.00,2013-02-22 14:32:00,
2013-02-22 09:37:00,24.8,22.3,30.42,SSE,154,0.0,1.0,90,0.00,,,0.00,98.00,VWS V14.00,2013-02-22 14:37:00,
2013-02-22 09:42:00,25.1,22.6,30.42,SSE,154,0.0,2.0,90,0.00,,,0.00,336.00,VWS V14.00,2013-02-22 14:42:00,
2013-02-22 09:47:00,25.4,22.9,30.41,SSE,154,0.0,1.0,90,0.00,,,0.00,338.00,VWS V14.00,2013-02-22 14:47:00,
2013-02-22 09:52:00,25.7,23.2,30.41,SE,141,0.0,3.0,90,0.00,,,0.00,431.00,VWS V14.00,2013-02-22 14:52:00,
2013-02-22 09:57:00,26.0,23.5,30.41,SSE,150,4.0,5.0,90,0.00,,,0.00,446.00,VWS V14.00,2013-02-22 14:57:00,
2013-02-22 10:02:00,26.3,23.8,30.41,SE,146,0.0,3.0,90,0.00,,,0.00,508.00,VWS V14.00,2013-02-22 15:02:00,
2013-02-22 10:07:00,26.7,24.2,30.41,SE,146,0.0,2.0,90,0.01,,,0.01,434.00,VWS V14.00,2013-02-22 15:07:00,
2013-02-22 10:12:00,27.1,24.3,30.40,SE,146,1.0,1.0,89,0.01,,,0.01,492.00,VWS V14.00,2013-02-22 15:12:00,
2013-02-22 10:17:00,27.4,24.6,30.40,SSE,153,2.0,6.0,89,0.01,,,0.01,487.00,VWS V14.00,2013-02-22 15:17:00,
2013-02-22 10:22:00,27.7,24.6,30.40,SSE,159,2.0,4.0,88,0.01,,,0.01,323.00,VWS V14.00,2013-02-22 15:22:00,
2013-02-22 10:28:00,27.8,24.4,30.40,SSE,158,2.0,5.0,87,0.01,,,0.01,422.00,VWS V14.00,2013-02-22 15:28:00,
2013-02-22 10:33:00,28.0,24.6,30.40,SSE,166,2.0,4.0,87,0.01,,,0.01,513.00,VWS V14.00,2013-02-22 15:33:00,
2013-02-22 10:38:00,28.4,25.0,30.40,SSE,166,0.0,2.0,87,0.01,,,0.01,454.00,VWS V14.00,2013-02-22 15:38:00,
2013-02-22 10:43:00,29.1,25.4,30.40,SSE,166,1.0,4.0,86,0.01,,,0.01,278.00,VWS V14.00,2013-02-22 15:43:00,
2013-02-22 10:48:00,29.6,25.6,30.39,SSE,165,2.0,3.0,85,0.01,,,0.01,591.00,VWS V14.00,2013-02-22 15:48:00,
2013-02-22 10:53:00,30.0,25.5,30.39,SSE,161,0.0,2.0,83,0.01,,,0.01,455.00,VWS V14.00,2013-02-22 15:53:00,
2013-02-22 10:58:00,30.3,25.2,30.39,SSE,161,2.0,4.0,81,0.01,,,0.01,487.00,VWS V14.00,2013-02-22 15:58:00,
2013-02-22 11:03:00,30.6,24.9,30.39,SE,136,0.0,4.0,79,0.01,,,0.01,643.00,VWS V14.00,2013-02-22 16:03:00,
2013-02-22 11:08:00,31.2,25.1,30.39,SE,135,2.0,3.0,78,0.01,,,0.01,673.00,VWS V14.00,2013-02-22 16:08:00,
2013-02-22 11:13:00,31.9,24.9,30.39,SSE,148,0.0,4.0,75,0.00,,,0.01,591.00,VWS V14.00,2013-02-22 16:13:00,
2013-02-22 11:18:00,32.4,24.4,30.38,East,97,7.0,8.0,72,0.00,,,0.01,649.00,VWS V14.00,2013-02-22 16:18:00,
2013-02-22 11:23:00,32.8,24.1,30.38,SE,130,0.0,8.0,70,0.00,,,0.01,680.00,VWS V14.00,2013-02-22 16:23:00,
2013-02-22 11:28:00,33.0,24.0,30.38,SSE,152,5.0,9.0,69,0.00,,,0.01,673.00,VWS V14.00,2013-02-22 16:28:00,
2013-02-22 11:33:00,32.9,23.5,30.38,SSE,155,7.0,10.0,68,0.01,,,0.02,705.00,VWS V14.00,2013-02-22 16:33:00,
2013-02-22 11:38:00,33.2,23.8,30.39,SSE,157,2.0,7.0,68,0.01,,,0.02,821.00,VWS V14.00,2013-02-22 16:38:00,
2013-02-22 11:43:00,33.5,23.4,30.38,SSE,157,4.0,4.0,66,0.01,,,0.02,353.00,VWS V14.00,2013-02-22 16:43:00,
2013-02-22 11:48:00,33.7,23.9,30.38,SE,144,6.0,9.0,67,0.01,,,0.02,715.00,VWS V14.00,2013-02-22 16:48:00,
2013-02-22 11:53:00,33.3,22.8,30.38,SSE,153,2.0,6.0,65,0.01,,,0.02,376.00,VWS V14.00,2013-02-22 16:53:00,
2013-02-22 11:58:00,32.7,22.2,30.38,East,98,2.0,4.0,65,0.01,,,0.02,318.00,VWS V14.00,2013-02-22 16:58:00,
2013-02-22 12:03:00,32.1,21.7,30.38,East,82,0.0,3.0,65,0.01,,,0.02,378.00,VWS V14.00,2013-02-22 17:03:00,
2013-02-22 12:08:00,32.0,21.9,30.38,East,89,3.0,5.0,66,0.01,,,0.02,350.00,VWS V14.00,2013-02-22 17:08:00,
2013-02-22 12:13:00,31.9,21.5,30.37,East,91,2.0,4.0,65,0.01,,,0.02,341.00,VWS V14.00,2013-02-22 17:13:00,
2013-02-22 12:18:00,32.0,21.6,30.37,ENE,69,0.0,5.0,65,0.01,,,0.02,329.00,VWS V14.00,2013-02-22 17:18:00,
2013-02-22 12:23:00,32.0,23.3,30.37,SSE,150,4.0,5.0,70,0.01,,,0.02,264.00,VWS V14.00,2013-02-22 17:23:00,
2013-02-22 12:28:00,32.1,22.0,30.36,SSE,163,1.0,5.0,66,0.01,,,0.02,320.00,VWS V14.00,2013-02-22 17:28:00,
2013-02-22 12:33:00,32.0,21.9,30.36,SSE,152,4.0,7.0,66,0.00,,,0.02,250.00,VWS V14.00,2013-02-22 17:33:00,
2013-02-22 12:38:00,31.7,21.7,30.36,SSE,164,2.0,6.0,66,0.00,,,0.02,192.00,VWS V14.00,2013-02-22 17:38:00,
2013-02-22 12:43:00,31.6,21.6,30.36,SE,139,0.0,3.0,66,0.00,,,0.02,178.00,VWS V14.00,2013-02-22 17:43:00,
2013-02-22 12:48:00,31.4,21.4,30.36,SSE,148,7.0,7.0,66,0.00,,,0.02,355.00,VWS V14.00,2013-02-22 17:48:00,
2013-02-22 12:53:00,31.3,21.3,30.35,SSE,153,4.0,5.0,66,0.00,,,0.02,397.00,VWS V14.00,2013-02-22 17:53:00,
2013-02-22 12:58:00,31.4,21.7,30.35,SSE,153,6.0,8.0,67,0.00,,,0.02,376.00,VWS V14.00,2013-02-22 17:58:00,
2013-02-22 13:03:00,31.5,21.8,30.34,SSE,157,0.0,5.0,67,0.00,,,0.02,378.00,VWS V14.00,2013-02-22 18:03:00,
2013-02-22 13:08:00,31.5,21.5,30.34,East,96,5.0,9.0,66,0.00,,,0.02,378.00,VWS V14.00,2013-02-22 18:08:00,
2013-02-22 13:13:00,31.4,21.4,30.33,ESE,111,3.0,5.0,66,0.00,,,0.02,418.00,VWS V14.00,2013-02-22 18:13:00,
2013-02-22 13:18:00,31.4,21.4,30.33,SSE,157,5.0,7.0,66,0.00,,,0.02,404.00,VWS V14.00,2013-02-22 18:18:00,
2013-02-22 13:23:00,31.6,21.6,30.33,SSW,193,1.0,5.0,66,0.00,,,0.02,411.00,VWS V14.00,2013-02-22 18:23:00,
2013-02-22 13:28:00,31.5,21.1,30.33,SSE,158,0.0,5.0,65,0.00,,,0.02,410.00,VWS V14.00,2013-02-22 18:28:00,
2013-02-22 13:33:00,31.8,21.4,30.33,SSE,148,1.0,4.0,65,0.00,,,0.02,394.00,VWS V14.00,2013-02-22 18:33:00,
2013-02-22 13:38:00,32.0,21.6,30.33,SE,144,0.0,2.0,65,0.00,,,0.02,360.00,VWS V14.00,2013-02-22 18:38:00,
2013-02-22 13:43:00,32.3,21.9,30.32,South,179,0.0,2.0,65,0.00,,,0.02,329.00,VWS V14.00,2013-02-22 18:43:00,
2013-02-22 13:48:00,32.4,21.6,30.32,SE,131,1.0,2.0,64,0.00,,,0.02,301.00,VWS V14.00,2013-02-22 18:48:00,
2013-02-22 13:53:00,32.4,21.6,30.32,South,175,0.0,2.0,64,0.00,,,0.02,290.00,VWS V14.00,2013-02-22 18:53:00,
2013-02-22 13:58:00,32.4,21.6,30.32,SSE,166,0.0,3.0,64,0.00,,,0.02,290.00,VWS V14.00,2013-02-22 18:58:00,
2013-02-22 14:03:00,32.3,21.5,30.32,ESE,113,0.0,3.0,64,0.00,,,0.02,301.00,VWS V14.00,2013-02-22 19:03:00,
2013-02-22 14:08:00,32.2,21.0,30.31,SE,140,0.0,4.0,63,0.01,,,0.03,315.00,VWS V14.00,2013-02-22 19:08:00,
2013-02-22 14:13:00,32.2,21.4,30.31,ESE,116,0.0,4.0,64,0.01,,,0.03,318.00,VWS V14.00,2013-02-22 19:13:00,
2013-02-22 14:18:00,32.1,21.3,30.32,SSE,167,0.0,4.0,64,0.01,,,0.03,320.00,VWS V14.00,2013-02-22 19:18:00,
2013-02-22 14:23:00,32.3,21.5,30.31,SSE,164,0.0,0.0,64,0.01,,,0.03,320.00,VWS V14.00,2013-02-22 19:23:00,
2013-02-22 14:28:00,32.4,21.6,30.31,SSE,165,1.0,7.0,64,0.01,,,0.03,348.00,VWS V14.00,2013-02-22 19:28:00,
2013-02-22 14:33:00,32.2,21.4,30.31,SSE,156,3.0,4.0,64,0.01,,,0.03,359.00,VWS V14.00,2013-02-22 19:33:00,
2013-02-22 14:38:00,32.3,21.5,30.31,SSW,205,0.0,3.0,64,0.01,,,0.03,348.00,VWS V14.00,2013-02-22 19:38:00,
2013-02-22 14:43:00,32.5,21.3,30.31,SE,144,2.0,5.0,63,0.01,,,0.03,336.00,VWS V14.00,2013-02-22 19:43:00,
2013-02-22 14:48:00,32.4,21.2,30.31,SE,139,0.0,1.0,63,0.01,,,0.03,329.00,VWS V14.00,2013-02-22 19:48:00,
2013-02-22 14:53:00,32.5,21.3,30.31,SE,139,0.0,1.0,63,0.01,,,0.03,355.00,VWS V14.00,2013-02-22 19:53:00,
2013-02-22 14:58:00,32.9,22.1,30.31,SE,145,2.0,5.0,64,0.01,,,0.03,399.00,VWS V14.00,2013-02-22 19:58:00,
2013-02-22 15:03:00,32.8,22.0,30.31,East,95,1.0,3.0,64,0.01,,,0.03,388.00,VWS V14.00,2013-02-22 20:03:00,
2013-02-22 15:08:00,32.9,21.7,30.30,SSW,197,1.0,3.0,63,0.01,,,0.03,380.00,VWS V14.00,2013-02-22 20:08:00,
2013-02-22 15:13:00,32.6,21.8,30.30,SSE,150,2.0,5.0,64,0.00,,,0.03,244.00,VWS V14.00,2013-02-22 20:13:00,
2013-02-22 15:18:00,32.3,21.5,30.29,SSE,151,2.0,6.0,64,0.00,,,0.03,171.00,VWS V14.00,2013-02-22 20:18:00,
2013-02-22 15:23:00,31.9,21.1,30.29,SSE,151,1.0,7.0,64,0.00,,,0.03,162.00,VWS V14.00,2013-02-22 20:23:00,
2013-02-22 15:28:00,31.5,21.1,30.29,SSE,161,0.0,5.0,65,0.00,,,0.03,167.00,VWS V14.00,2013-02-22 20:28:00,
2013-02-22 15:33:00,31.2,20.8,30.28,SSE,151,6.0,7.0,65,0.00,,,0.03,179.00,VWS V14.00,2013-02-22 20:33:00,
2013-02-22 15:38:00,31.0,21.0,30.28,SSE,153,3.0,8.0,66,0.00,,,0.03,251.00,VWS V14.00,2013-02-22 20:38:00,
2013-02-22 15:43:00,31.0,21.0,30.28,SSW,198,0.0,6.0,66,0.00,,,0.03,234.00,VWS V14.00,2013-02-22 20:43:00,
2013-02-22 15:48:00,30.8,20.8,30.28,SSE,167,1.0,8.0,66,0.00,,,0.03,241.00,VWS V14.00,2013-02-22 20:48:00,
2013-02-22 15:53:00,30.8,20.8,30.28,SSE,153,2.0,6.0,66,0.00,,,0.03,190.00,VWS V14.00,2013-02-22 20:53:00,
2013-02-22 15:58:00,30.9,20.9,30.28,SSE,158,3.0,6.0,66,0.00,,,0.03,146.00,VWS V14.00,2013-02-22 20:58:00,
2013-02-22 16:03:00,30.8,20.8,30.29,ESE,122,1.0,2.0,66,0.00,,,0.03,113.00,VWS V14.00,2013-02-22 21:03:00,
2013-02-22 16:08:00,30.8,20.8,30.28,SSE,150,2.0,2.0,66,0.00,,,0.03,77.00,VWS V14.00,2013-02-22 21:08:00,
2013-02-22 16:13:00,30.8,20.8,30.28,SSE,150,0.0,1.0,66,0.00,,,0.03,56.00,VWS V14.00,2013-02-22 21:13:00,
2013-02-22 16:18:00,30.7,21.1,30.28,SSE,163,0.0,4.0,67,0.00,,,0.03,54.00,VWS V14.00,2013-02-22 21:18:00,
2013-02-22 16:23:00,30.5,20.9,30.27,SSE,163,0.0,1.0,67,0.00,,,0.03,67.00,VWS V14.00,2013-02-22 21:23:00,
2013-02-22 16:28:00,30.3,21.0,30.27,SE,135,2.0,2.0,68,0.00,,,0.03,65.00,VWS V14.00,2013-02-22 21:28:00,
2013-02-22 16:33:00,30.2,20.9,30.27,SE,135,1.0,2.0,68,0.00,,,0.03,47.00,VWS V14.00,2013-02-22 21:33:00,
2013-02-22 16:38:00,30.0,21.1,30.27,SE,143,1.0,3.0,69,0.00,,,0.03,42.00,VWS V14.00,2013-02-22 21:38:00,
2013-02-22 16:43:00,29.8,20.9,30.27,SSE,157,0.0,4.0,69,0.00,,,0.03,60.00,VWS V14.00,2013-02-22 21:43:00,
2013-02-22 16:48:00,29.7,21.1,30.27,SSE,157,0.0,2.0,70,0.00,,,0.03,86.00,VWS V14.00,2013-02-22 21:48:00,
2013-02-22 16:53:00,29.7,21.5,30.27,SSE,159,0.0,2.0,71,0.00,,,0.03,76.00,VWS V14.00,2013-02-22 21:53:00,
2013-02-22 16:58:00,29.7,21.8,30.27,SSE,159,0.0,1.0,72,0.00,,,0.03,62.00,VWS V14.00,2013-02-22 21:58:00,
2013-02-22 17:03:00,29.7,21.8,30.27,SSE,159,0.0,1.0,72,0.00,,,0.03,40.00,VWS V14.00,2013-02-22 22:03:00,
2013-02-22 17:08:00,29.8,21.9,30.27,SSE,159,0.0,1.0,72,0.00,,,0.03,21.00,VWS V14.00,2013-02-22 22:08:00,
2013-02-22 17:13:00,29.7,21.8,30.27,SSE,159,0.0,1.0,72,0.00,,,0.03,14.00,VWS V14.00,2013-02-22 22:13:00,
2013-02-22 17:18:00,29.7,21.8,30.27,SSE,159,0.0,0.0,72,0.00,,,0.03,12.00,VWS V14.00,2013-02-22 22:18:00,
2013-02-22 17:23:00,29.6,21.7,30.27,SSE,159,0.0,0.0,72,0.00,,,0.03,11.00,VWS V14.00,2013-02-22 22:23:00,
2013-02-22 17:28:00,29.5,21.3,30.28,SSE,159,0.0,0.0,71,0.00,,,0.03,9.00,VWS V14.00,2013-02-22 22:28:00,
2013-02-22 17:33:00,29.5,21.6,30.27,SSE,159,0.0,0.0,72,0.00,,,0.03,5.00,VWS V14.00,2013-02-22 22:33:00,
2013-02-22 17:38:00,29.3,21.4,30.28,SSE,159,0.0,0.0,72,0.00,,,0.03,0.00,VWS V14.00,2013-02-22 22:38:00,
2013-02-22 17:43:00,29.2,21.3,30.27,SSE,159,0.0,0.0,72,0.00,,,0.03,0.00,VWS V14.00,2013-02-22 22:43:00,
2013-02-22 17:48:00,29.1,21.2,30.27,SSE,159,0.0,0.0,72,0.00,,,0.03,0.00,VWS V14.00,2013-02-22 22:48:00,
2013-02-22 17:53:00,28.9,21.0,30.28,SSE,159,0.0,0.0,72,0.00,,,0.03,0.00,VWS V14.00,2013-02-22 22:53:00,
2013-02-22 17:58:00,28.7,20.8,30.27,West,277,0.0,0.0,72,0.00,,,0.03,0.00,VWS V14.00,2013-02-22 22:58:00,
2013-02-22 18:03:00,28.5,20.6,30.27,West,277,0.0,0.0,72,0.00,,,0.03,0.00,VWS V14.00,2013-02-22 23:03:00,
2013-02-22 18:08:00,28.3,20.4,30.27,West,277,0.0,0.0,72,0.00,,,0.03,0.00,VWS V14.00,2013-02-22 23:08:00,
2013-02-22 18:13:00,28.2,20.7,30.26,West,277,0.0,0.0,73,0.00,,,0.03,0.00,VWS V14.00,2013-02-22 23:13:00,
2013-02-22 18:18:00,28.0,20.8,30.26,West,277,0.0,0.0,74,0.00,,,0.03,0.00,VWS V14.00,2013-02-22 23:18:00,
2013-02-22 18:23:00,27.9,20.7,30.27,West,277,0.0,0.0,74,0.00,,,0.03,0.00,VWS V14.00,2013-02-22 23:23:00,
2013-02-22 18:28:00,27.9,20.7,30.27,West,277,0.0,0.0,74,0.00,,,0.03,0.00,VWS V14.00,2013-02-22 23:28:00,
2013-02-22 18:33:00,27.8,20.9,30.27,West,277,0.0,0.0,75,0.00,,,0.03,0.00,VWS V14.00,2013-02-22 23:33:00,
2013-02-22 18:38:00,27.7,20.8,30.27,West,277,0.0,0.0,75,0.00,,,0.03,0.00,VWS V14.00,2013-02-22 23:38:00,
2013-02-22 18:43:00,27.7,20.8,30.27,West,277,0.0,0.0,75,0.00,,,0.03,0.00,VWS V14.00,2013-02-22 23:43:00,
2013-02-22 18:49:00,27.7,21.1,30.27,West,277,0.0,0.0,76,0.00,,,0.03,0.00,VWS V14.00,2013-02-22 23:49:00,
2013-02-22 18:54:00,27.6,21.0,30.26,West,277,0.0,0.0,76,0.00,,,0.03,0.00,VWS V14.00,2013-02-22 23:54:00,
2013-02-22 18:59:00,27.8,21.2,30.26,South,186,0.0,2.0,76,0.00,,,0.03,0.00,VWS V14.00,2013-02-22 23:59:00,
2013-02-22 19:04:00,27.9,21.3,30.26,South,186,0.0,0.0,76,0.00,,,0.03,0.00,VWS V14.00,2013-02-23 00:04:00,
2013-02-22 19:09:00,27.9,21.3,30.26,South,186,0.0,0.0,76,0.00,,,0.03,0.00,VWS V14.00,2013-02-23 00:09:00,
2013-02-22 19:14:00,27.9,21.3,30.27,South,186,0.0,0.0,76,0.00,,,0.03,0.00,VWS V14.00,2013-02-23 00:14:00,
2013-02-22 19:19:00,27.9,21.3,30.27,South,186,0.0,0.0,76,0.00,,,0.03,0.00,VWS V14.00,2013-02-23 00:19:00,
2013-02-22 19:24:00,27.9,21.3,30.27,South,186,0.0,0.0,76,0.00,,,0.03,0.00,VWS V14.00,2013-02-23 00:24:00,
2013-02-22 19:29:00,27.9,21.3,30.26,South,186,0.0,1.0,76,0.00,,,0.03,0.00,VWS V14.00,2013-02-23 00:29:00,
2013-02-22 19:34:00,27.8,21.5,30.26,South,186,0.0,1.0,77,0.00,,,0.03,0.00,VWS V14.00,2013-02-23 00:34:00,
2013-02-22 19:39:00,27.8,21.5,30.25,South,186,0.0,0.0,77,0.00,,,0.03,0.00,VWS V14.00,2013-02-23 00:39:00,
2013-02-22 19:44:00,27.8,21.5,30.25,South,186,0.0,0.0,77,0.00,,,0.03,0.00,VWS V14.00,2013-02-23 00:44:00,
2013-02-22 19:49:00,27.7,21.4,30.25,South,186,0.0,0.0,77,0.00,,,0.03,0.00,VWS V14.00,2013-02-23 00:49:00,
2013-02-22 19:54:00,27.7,21.8,30.25,South,186,0.0,0.0,78,0.00,,,0.03,0.00,VWS V14.00,2013-02-23 00:54:00,
2013-02-22 19:59:00,27.6,21.4,30.25,South,186,0.0,0.0,77,0.00,,,0.03,0.00,VWS V14.00,2013-02-23 00:59:00,
2013-02-22 20:04:00,27.6,21.6,30.25,South,186,0.0,0.0,78,0.00,,,0.03,0.00,VWS V14.00,2013-02-23 01:04:00,
2013-02-22 20:09:00,27.6,21.6,30.25,South,186,0.0,0.0,78,0.00,,,0.03,0.00,VWS V14.00,2013-02-23 01:09:00,
2013-02-22 20:14:00,27.6,21.6,30.25,South,186,0.0,0.0,78,0.00,,,0.03,0.00,VWS V14.00,2013-02-23 01:14:00,
2013-02-22 20:19:00,27.6,21.6,30.24,South,186,0.0,0.0,78,0.00,,,0.03,0.00,VWS V14.00,2013-02-23 01:19:00,
2013-02-22 20:24:00,27.5,21.5,30.24,South,186,0.0,0.0,78,0.00,,,0.03,0.00,VWS V14.00,2013-02-23 01:24:00,
2013-02-22 20:29:00,27.5,21.5,30.24,South,186,0.0,0.0,78,0.00,,,0.03,0.00,VWS V14.00,2013-02-23 01:29:00,
2013-02-22 20:34:00,27.5,21.5,30.24,South,186,0.0,0.0,78,0.00,,,0.03,0.00,VWS V14.00,2013-02-23 01:34:00,
2013-02-22 20:39:00,27.5,21.5,30.24,South,186,0.0,1.0,78,0.00,,,0.03,0.00,VWS V14.00,2013-02-23 01:39:00,
2013-02-22 20:44:00,27.4,21.5,30.24,NW,311,1.0,3.0,78,0.00,,,0.03,0.00,VWS V14.00,2013-02-23 01:44:00,
2013-02-22 20:49:00,27.3,21.4,30.25,NW,311,1.0,2.0,78,0.00,,,0.03,0.00,VWS V14.00,2013-02-23 01:49:00,
2013-02-22 20:54:00,27.2,21.3,30.25,NW,311,0.0,3.0,78,0.00,,,0.03,0.00,VWS V14.00,2013-02-23 01:54:00,
2013-02-22 20:59:00,27.0,21.1,30.25,NW,311,1.0,3.0,78,0.00,,,0.03,0.00,VWS V14.00,2013-02-23 01:59:00,
2013-02-22 21:04:00,26.9,21.0,30.24,NW,311,0.0,1.0,78,0.00,,,0.03,0.00,VWS V14.00,2013-02-23 02:04:00,
2013-02-22 21:09:00,26.8,20.9,30.24,NW,311,1.0,2.0,78,0.00,,,0.03,0.00,VWS V14.00,2013-02-23 02:09:00,
2013-02-22 21:14:00,26.6,20.7,30.24,WSW,252,4.0,4.0,78,0.00,,,0.03,0.00,VWS V14.00,2013-02-23 02:14:00,
2013-02-22 21:19:00,26.5,20.6,30.24,West,261,3.0,5.0,78,0.00,,,0.03,0.00,VWS V14.00,2013-02-23 02:19:00,
2013-02-22 21:24:00,26.4,20.5,30.24,SW,234,4.0,7.0,78,0.00,,,0.03,0.00,VWS V14.00,2013-02-23 02:24:00,
2013-02-22 21:29:00,26.5,20.9,30.23,WSW,252,6.0,9.0,79,0.00,,,0.03,0.00,VWS V14.00,2013-02-23 02:29:00,
2013-02-22 21:34:00,26.9,21.3,30.24,SW,230,8.0,10.0,79,0.00,,,0.03,0.00,VWS V14.00,2013-02-23 02:34:00,
2013-02-22 21:39:00,27.4,21.5,30.23,WSW,247,4.0,10.0,78,0.00,,,0.03,0.00,VWS V14.00,2013-02-23 02:39:00,
2013-02-22 21:44:00,27.7,21.4,30.23,SW,228,4.0,6.0,77,0.00,,,0.03,0.00,VWS V14.00,2013-02-23 02:44:00,
2013-02-22 21:49:00,27.9,21.3,30.23,WSW,255,3.0,6.0,76,0.00,,,0.03,0.00,VWS V14.00,2013-02-23 02:49:00,
2013-02-22 21:54:00,28.0,21.4,30.23,WSW,257,1.0,4.0,76,0.00,,,0.03,0.00,VWS V14.00,2013-02-23 02:54:00,
2013-02-22 21:59:00,28.0,21.1,30.23,WSW,248,1.0,5.0,75,0.00,,,0.03,0.00,VWS V14.00,2013-02-23 02:59:00,
2013-02-22 22:04:00,28.0,21.1,30.22,SW,234,0.0,3.0,75,0.00,,,0.03,0.00,VWS V14.00,2013-02-23 03:04:00,
2013-02-22 22:09:00,27.9,21.0,30.23,West,273,0.0,4.0,75,0.00,,,0.03,0.00,VWS V14.00,2013-02-23 03:09:00,
2013-02-22 22:14:00,27.9,21.0,30.23,West,273,3.0,3.0,75,0.00,,,0.03,0.00,VWS V14.00,2013-02-23 03:14:00,
2013-02-22 22:19:00,27.8,20.9,30.23,SW,219,2.0,4.0,75,0.00,,,0.03,0.00,VWS V14.00,2013-02-23 03:19:00,
2013-02-22 22:24:00,27.8,20.9,30.22,WSW,241,4.0,4.0,75,0.00,,,0.03,0.00,VWS V14.00,2013-02-23 03:24:00,
2013-02-22 22:29:00,27.9,21.0,30.22,WSW,238,5.0,8.0,75,0.00,,,0.03,0.00,VWS V14.00,2013-02-23 03:29:00,
2013-02-22 22:34:00,28.1,21.2,30.22,SSW,209,1.0,5.0,75,0.00,,,0.03,0.00,VWS V14.00,2013-02-23 03:34:00,
2013-02-22 22:39:00,28.4,21.5,30.23,WSW,250,3.0,8.0,75,0.00,,,0.03,0.00,VWS V14.00,2013-02-23 03:39:00,
2013-02-22 22:44:00,28.7,21.8,30.22,SW,233,6.0,10.0,75,0.00,,,0.03,0.00,VWS V14.00,2013-02-23 03:44:00,
2013-02-22 22:49:00,29.1,22.2,30.21,SW,219,6.0,9.0,75,0.00,,,0.03,0.00,VWS V14.00,2013-02-23 03:49:00,
2013-02-22 22:54:00,29.4,22.1,30.22,West,263,5.0,9.0,74,0.00,,,0.03,0.00,VWS V14.00,2013-02-23 03:54:00,
2013-02-22 22:59:00,29.7,22.4,30.22,SW,219,2.0,7.0,74,0.00,,,0.03,0.00,VWS V14.00,2013-02-23 03:59:00,
2013-02-22 23:04:00,29.9,22.3,30.22,SW,222,3.0,6.0,73,0.00,,,0.03,0.00,VWS V14.00,2013-02-23 04:04:00,
2013-02-22 23:09:00,30.1,22.5,30.22,SW,230,4.0,7.0,73,0.00,,,0.03,0.00,VWS V14.00,2013-02-23 04:09:00,
2013-02-22 23:14:00,30.2,22.6,30.21,SSW,213,3.0,6.0,73,0.00,,,0.03,0.00,VWS V14.00,2013-02-23 04:14:00,
2013-02-22 23:19:00,30.3,22.4,30.22,WSW,248,1.0,5.0,72,0.00,,,0.03,0.00,VWS V14.00,2013-02-23 04:19:00,
2013-02-22 23:24:00,30.4,22.5,30.21,SSW,202,2.0,3.0,72,0.00,,,0.03,0.00,VWS V14.00,2013-02-23 04:24:00,
2013-02-22 23:29:00,30.5,22.6,30.21,SW,221,0.0,3.0,72,0.00,,,0.03,0.00,VWS V14.00,2013-02-23 04:29:00,
2013-02-22 23:34:00,30.5,22.6,30.21,South,185,1.0,4.0,72,0.00,,,0.03,0.00,VWS V14.00,2013-02-23 04:34:00,
2013-02-22 23:39:00,30.5,22.6,30.21,SSW,200,3.0,6.0,72,0.00,,,0.03,0.00,VWS V14.00,2013-02-23 04:39:00,
2013-02-22 23:44:00,30.6,22.7,30.21,SSW,208,3.0,4.0,72,0.00,,,0.03,0.00,VWS V14.00,2013-02-23 04:44:00,
2013-02-22 23:49:00,30.6,22.7,30.20,South,184,3.0,4.0,72,0.00,,,0.03,0.00,VWS V14.00,2013-02-23 04:49:00,
2013-02-22 23:54:00,30.6,22.3,30.20,South,190,0.0,6.0,71,0.00,,,0.03,0.00,VWS V14.00,2013-02-23 04:54:00,
2013-02-22 23:59:00,30.7,22.4,30.20,SSW,207,0.0,4.0,71,0.00,,,0.03,0.00,VWS V14.00,2013-02-23 04:59:00,